Terminal Aerodrome Forecast
Issued by NWS

Home | Current Version | Previous Version | Text Only | Print | Product List | Glossary On
Versions: 1 2 3 4 5 6 7 8 9 10 11 12 13 14
000
FTAK31 PAJN 291100 RRA
TAFASI
TAF
PASI 291142Z 2912/3012 12010KT P6SM -SHRA BKN040 OVC060
      WS020/14030KT
     FM291800 14012KT P6SM -SHRA SCT020 OVC040 WS020/16035KT
     FM292100 14010KT 6SM -SHRA BR BKN015 OVC030
     FM300000 12006KT P6SM -SHRA SCT025 OVC050
     FM300300 VRB04KT P6SM VCSH SCT015 OVC050
     FM300900 00000KT P6SM VCSH SCT025 OVC050=

USA.gov is the U.S. government's official web portal to all federal, state and local government web resources and services.